Van Dyne, Wisconsin
Current Conditions -  °F | °C
As of 10:53 PM on Saturday 20 Dec 2014 (Local Time) from KOSH Reporting Station
Haze Haze  
Wind Chill: 24°   Ceiling: 2700
Heat Index: 29°   Visibility: 5mi
Dew Point: 26°   Wind: 5mph
Humidity: 89%   Direction: 180°S
Pressure: 30.2"   Gusts: NA
Location:  43.89°N, 88.5°W
Report Text: KOSH 210453Z 18004KT 5SM BR OVC027 M02/M03 A3020 RMK AO2 SLP243 T10171033
Loading
Personal Weather Stations






























Interactive Weather Map New forecast layout! Learn more

10-Day Weather Forecast

Advertisements
Track Severe Weather on mobile